Time;durP1;ratioP1;P1;durP2;ratioP2;P2;SDS_P1;SDS_P2;PMS_P1;PMS_P2;Temp;Humidity;BMP_temperature;BMP_pressure;BME280_temperature;BME280_humidity;BME280_pressure;Samples;Min_cycle;Max_cycle;Signal;HPM_P1;HPM_P2
2022/11/25 00:00:25;;;;;;;20.38;3.95;;;8.00;99.90;;;;;;5021445;28;20092;-49
2022/11/25 00:02:50;;;;;;;19.05;3.90;;;6.70;99.90;;;;;;5020226;28;20086;-50
2022/11/25 00:05:16;;;;;;;24.60;4.75;;;6.80;99.90;;;;;;5020495;28;20128;-49
2022/11/25 00:07:42;;;;;;;18.38;3.60;;;6.70;99.90;;;;;;5020675;28;20038;-50
2022/11/25 00:10:08;;;;;;;14.70;3.65;;;6.70;99.90;;;;;;5018687;28;20049;-51
2022/11/25 00:12:34;;;;;;;19.50;3.28;;;6.60;99.90;;;;;;5018194;28;20029;-48
2022/11/25 00:15:00;;;;;;;22.17;3.60;;;6.50;99.90;;;;;;5018525;28;20042;-51
2022/11/25 00:17:26;;;;;;;28.58;5.22;;;6.60;99.90;;;;;;5015583;28;20048;-50
2022/11/25 00:19:52;;;;;;;19.52;4.85;;;6.80;99.90;;;;;;5019156;28;20080;-50
2022/11/25 00:22:17;;;;;;;20.60;4.10;;;7.40;99.90;;;;;;5050736;28;20049;-50
2022/11/25 00:24:43;;;;;;;16.13;3.83;;;6.60;99.90;;;;;;5020536;28;20086;-49
2022/11/25 00:27:09;;;;;;;18.27;4.10;;;6.70;99.90;;;;;;5018496;28;20033;-50
2022/11/25 00:29:34;;;;;;;16.90;3.80;;;6.80;99.90;;;;;;5021193;28;20041;-51
2022/11/25 00:32:00;;;;;;;22.42;3.38;;;6.90;99.90;;;;;;5018380;28;20029;-49
2022/11/25 00:34:26;;;;;;;17.00;4.10;;;6.70;99.90;;;;;;5015116;28;20096;-48
2022/11/25 00:36:55;;;;;;;20.65;4.20;;;6.70;99.90;;;;;;5020209;28;20037;-50
2022/11/25 00:39:23;;;;;;;18.17;3.78;;;6.80;99.90;;;;;;5018332;28;20045;-47
2022/11/25 00:44:36;;;;;;;20.52;3.53;;;6.70;99.90;;;;;;5016817;28;20402;-50
2022/11/25 00:47:06;;;;;;;25.25;4.40;;;6.80;99.90;;;;;;5019715;28;20414;-47
2022/11/25 00:49:32;;;;;;;14.63;3.20;;;6.70;99.90;;;;;;5019695;28;20091;-47
2022/11/25 00:51:58;;;;;;;18.80;4.00;;;6.80;99.90;;;;;;5018878;28;20141;-47
2022/11/25 00:54:24;;;;;;;27.63;4.93;;;6.70;99.90;;;;;;5015542;28;20106;-46
2022/11/25 00:56:50;;;;;;;24.17;4.10;;;8.60;99.90;;;;;;5018839;28;20041;-49
2022/11/25 00:59:16;;;;;;;20.20;4.53;;;7.10;99.90;;;;;;5016740;28;20037;-47
2022/11/25 01:01:42;;;;;;;13.43;2.95;;;8.10;99.90;;;;;;5016544;28;20042;-47
2022/11/25 01:04:07;;;;;;;18.85;3.50;;;6.80;99.90;;;;;;5019693;28;20525;-51
2022/11/25 01:06:34;;;;;;;20.58;4.00;;;8.40;99.90;;;;;;5014882;28;20132;-51
2022/11/25 01:09:00;;;;;;;19.63;3.83;;;6.90;99.90;;;;;;5015424;28;20045;-49
2022/11/25 01:11:26;;;;;;;19.92;3.42;;;6.80;99.90;;;;;;5018068;28;20057;-48
2022/11/25 01:13:55;;;;;;;17.00;3.15;;;7.00;99.90;;;;;;5017137;28;20060;-50
2022/11/25 01:16:21;;;;;;;18.58;3.50;;;7.70;99.90;;;;;;5021498;28;20052;-47
2022/11/25 01:18:49;;;;;;;20.98;3.40;;;7.00;99.90;;;;;;5018218;28;20612;-46
2022/11/25 01:21:17;;;;;;;13.25;3.47;;;8.60;99.90;;;;;;5021539;28;20045;-48
2022/11/25 01:23:44;;;;;;;24.90;3.60;;;7.70;99.90;;;;;;5020916;28;20041;-49
2022/11/25 01:26:12;;;;;;;18.63;4.60;;;8.20;99.90;;;;;;5021637;28;20514;-49
2022/11/25 01:28:38;;;;;;;17.58;3.63;;;6.90;99.90;;;;;;5019166;28;20068;-52
2022/11/25 01:31:10;;;;;;;15.50;3.25;;;7.10;99.90;;;;;;5021923;28;20402;-48
2022/11/25 01:33:36;;;;;;;20.67;3.70;;;7.00;99.90;;;;;;5021152;28;20560;-50
2022/11/25 01:36:21;;;;;;;18.35;3.35;;;7.40;99.90;;;;;;5014761;28;20045;-50
2022/11/25 01:38:52;;;;;;;11.90;3.30;;;6.80;99.90;;;;;;5015525;28;20049;-50
2022/11/25 01:41:19;;;;;;;23.55;6.40;;;6.80;99.90;;;;;;5014646;28;20685;-47
2022/11/25 01:44:05;;;;;;;20.20;5.15;;;6.80;99.90;;;;;;5018163;28;20032;-47
2022/11/25 01:46:44;;;;;;;20.98;4.07;;;6.90;99.90;;;;;;5014552;28;20580;-48
2022/11/25 01:49:25;;;;;;;22.15;4.13;;;6.70;99.90;;;;;;5016907;28;21196;-52
2022/11/25 01:52:01;;;;;;;20.85;3.95;;;6.90;99.90;;;;;;5016712;28;20313;-50
2022/11/25 01:54:31;;;;;;;23.30;3.83;;;6.90;99.90;;;;;;5016351;28;20118;-48
2022/11/25 01:57:02;;;;;;;16.88;4.05;;;6.70;99.90;;;;;;5014099;28;20046;-49
2022/11/25 01:59:30;;;;;;;23.15;4.35;;;7.60;99.90;;;;;;5015210;28;20705;-50
2022/11/25 02:01:57;;;;;;;17.27;3.35;;;6.90;99.90;;;;;;5019369;28;20041;-48
2022/11/25 02:04:30;;;;;;;25.60;4.68;;;6.70;99.90;;;;;;5018519;28;20630;-49
2022/11/25 02:07:02;;;;;;;20.85;4.10;;;8.60;99.90;;;;;;5016636;28;20052;-47
2022/11/25 02:09:29;;;;;;;22.13;5.28;;;6.80;99.90;;;;;;5017718;28;20751;-47
2022/11/25 02:11:56;;;;;;;22.98;4.47;;;6.90;99.90;;;;;;5018262;28;20045;-48
2022/11/25 02:14:24;;;;;;;17.95;4.18;;;6.80;99.90;;;;;;5017630;28;20052;-47
2022/11/25 02:16:49;;;;;;;17.33;3.22;;;6.90;99.90;;;;;;5015787;28;20160;-50
2022/11/25 02:19:39;;;;;;;26.60;5.05;;;6.80;99.90;;;;;;5018166;28;20131;-49
2022/11/25 02:22:14;;;;;;;22.38;3.78;;;6.80;99.90;;;;;;5018972;28;20796;-50
2022/11/25 02:24:44;;;;;;;20.52;4.20;;;7.00;99.90;;;;;;5018611;28;20042;-48
2022/11/25 02:27:10;;;;;;;24.60;4.50;;;7.40;99.90;;;;;;5019246;28;20401;-48
2022/11/25 02:29:38;;;;;;;19.23;4.03;;;7.20;99.90;;;;;;5019856;28;20037;-47
2022/11/25 02:32:04;;;;;;;19.15;3.85;;;8.80;99.90;;;;;;5018658;28;20072;-48
2022/11/25 02:34:29;;;;;;;17.50;3.58;;;7.60;99.90;;;;;;5021072;28;20041;-47
2022/11/25 02:36:55;;;;;;;28.73;4.20;;;6.80;99.90;;;;;;5019176;28;20048;-47
2022/11/25 02:39:21;;;;;;;27.42;4.60;;;8.10;99.90;;;;;;5014032;28;20060;-47
2022/11/25 02:41:52;;;;;;;21.13;4.22;;;6.90;99.90;;;;;;5015743;28;20046;-47
2022/11/25 02:44:19;;;;;;;21.52;4.30;;;7.60;99.90;;;;;;5016082;28;20041;-49
2022/11/25 02:46:45;;;;;;;22.33;4.70;;;7.00;99.90;;;;;;5017351;28;20172;-48
2022/11/25 02:49:10;;;;;;;17.80;3.78;;;6.80;99.90;;;;;;5017135;28;20068;-51
2022/11/25 02:51:39;;;;;;;27.65;5.28;;;7.70;99.90;;;;;;5014751;28;20120;-47
2022/11/25 02:54:05;;;;;;;19.98;4.32;;;7.00;99.90;;;;;;5022666;28;20044;-49
2022/11/25 02:56:34;;;;;;;23.02;4.55;;;7.00;99.90;;;;;;5023609;28;20033;-48
2022/11/25 02:59:01;;;;;;;23.50;4.18;;;6.90;99.90;;;;;;5026407;28;20060;-48
2022/11/25 03:01:28;;;;;;;22.17;3.97;;;6.90;99.90;;;;;;5023161;28;20061;-51
2022/11/25 03:03:54;;;;;;;22.83;4.90;;;8.10;99.90;;;;;;5024649;28;20747;-48
2022/11/25 03:06:19;;;;;;;23.70;4.90;;;7.00;99.90;;;;;;5017963;28;20049;-48
2022/11/25 03:08:45;;;;;;;24.15;5.05;;;7.10;99.90;;;;;;5024072;28;20045;-47
2022/11/25 03:11:11;;;;;;;32.20;5.47;;;7.10;99.90;;;;;;5025060;28;20098;-47
2022/11/25 03:13:38;;;;;;;21.33;4.80;;;7.90;99.90;;;;;;5023911;28;21109;-51
2022/11/25 03:16:04;;;;;;;23.10;4.57;;;7.20;99.90;;;;;;5023242;28;20049;-47
2022/11/25 03:18:29;;;;;;;25.80;6.72;;;7.10;99.90;;;;;;5020439;28;20049;-48
2022/11/25 03:20:55;;;;;;;20.92;6.00;;;7.70;99.90;;;;;;5021004;28;20049;-47
2022/11/25 03:23:21;;;;;;;27.38;4.80;;;7.00;99.90;;;;;;5019526;28;20053;-47
2022/11/25 03:25:47;;;;;;;23.20;6.13;;;7.20;99.90;;;;;;5019844;28;20049;-48
2022/11/25 03:28:13;;;;;;;21.58;5.93;;;9.30;99.90;;;;;;5023330;28;20041;-49
2022/11/25 03:30:38;;;;;;;18.77;4.72;;;9.40;99.90;;;;;;5025778;28;20103;-48
2022/11/25 03:33:04;;;;;;;24.70;5.55;;;8.20;99.90;;;;;;5022395;28;20045;-48
2022/11/25 03:35:30;;;;;;;26.45;5.22;;;9.00;99.90;;;;;;5023181;28;20049;-48
2022/11/25 03:37:55;;;;;;;26.90;5.53;;;7.70;99.90;;;;;;5024761;28;20065;-51
2022/11/25 03:40:21;;;;;;;19.40;4.95;;;7.40;99.90;;;;;;5021922;28;20041;-51
2022/11/25 03:42:48;;;;;;;22.27;5.35;;;7.50;99.90;;;;;;5022288;28;20103;-49
2022/11/25 03:45:14;;;;;;;19.05;5.47;;;8.20;99.90;;;;;;5021987;28;20045;-48
2022/11/25 03:47:41;;;;;;;20.88;5.20;;;8.20;99.90;;;;;;5024067;28;20034;-49
2022/11/25 03:50:09;;;;;;;23.83;5.15;;;9.20;99.90;;;;;;5023660;28;20476;-48
2022/11/25 03:52:35;;;;;;;18.60;5.85;;;7.60;99.90;;;;;;5022148;28;20048;-48
2022/11/25 03:55:00;;;;;;;21.10;5.32;;;7.60;99.90;;;;;;5022446;28;20049;-50
2022/11/25 03:57:26;;;;;;;21.52;5.93;;;7.40;99.90;;;;;;5022764;28;20057;-50
2022/11/25 03:59:52;;;;;;;22.42;6.47;;;7.40;99.90;;;;;;5023010;28;20060;-47
2022/11/25 04:02:18;;;;;;;23.95;6.28;;;7.50;99.90;;;;;;5021515;28;20046;-47
2022/11/25 04:04:44;;;;;;;25.60;6.80;;;7.60;99.90;;;;;;5020616;28;20090;-47
2022/11/25 04:07:09;;;;;;;27.23;8.48;;;7.70;99.90;;;;;;5018092;28;20037;-50
2022/11/25 04:09:35;;;;;;;21.98;6.53;;;8.80;99.90;;;;;;5018340;28;20066;-51
2022/11/25 04:14:45;;;;;;;24.90;7.05;;;7.50;99.90;;;;;;5021939;28;20948;-49
2022/11/25 04:17:11;;;;;;;25.83;7.45;;;7.80;99.90;;;;;;5020658;28;20789;-50
2022/11/25 04:19:36;;;;;;;22.25;7.57;;;8.80;99.90;;;;;;5019241;28;20045;-49
2022/11/25 04:22:02;;;;;;;26.23;8.07;;;8.70;99.90;;;;;;5020223;28;20067;-52
2022/11/25 04:24:28;;;;;;;25.13;7.45;;;8.30;99.90;;;;;;5018551;28;20040;-49
2022/11/25 04:26:54;;;;;;;22.33;7.70;;;7.40;99.90;;;;;;5019613;28;20466;-47
2022/11/25 04:29:20;;;;;;;29.92;8.93;;;7.60;99.90;;;;;;5017304;28;20041;-48
2022/11/25 04:31:45;;;;;;;29.05;8.27;;;7.50;99.90;;;;;;5016410;28;20442;-52
2022/11/25 04:34:11;;;;;;;30.90;8.63;;;9.20;99.90;;;;;;5020037;28;20049;-51
2022/11/25 04:36:37;;;;;;;24.40;8.48;;;8.20;99.90;;;;;;5017913;28;20084;-52
2022/11/25 04:39:03;;;;;;;28.65;8.65;;;7.90;99.90;;;;;;5018708;28;20033;-48
2022/11/25 04:41:29;;;;;;;27.40;9.15;;;8.40;99.90;;;;;;5017897;28;20255;-50
2022/11/25 04:43:54;;;;;;;31.52;9.07;;;8.10;99.90;;;;;;5018555;28;20041;-47
2022/11/25 04:46:30;;;;;;;35.72;9.10;;;7.50;99.90;;;;;;5016379;28;20034;-47
2022/11/25 04:48:56;;;;;;;21.02;7.72;;;8.10;99.90;;;;;;5020185;28;20397;-50
2022/11/25 04:51:21;;;;;;;28.30;9.43;;;8.30;99.90;;;;;;5018380;28;20042;-52
2022/11/25 04:53:47;;;;;;;26.38;8.98;;;8.40;99.90;;;;;;5018932;28;20136;-53
2022/11/25 04:56:18;;;;;;;37.83;9.07;;;9.40;99.90;;;;;;5019600;28;20049;-51
2022/11/25 05:01:28;;;;;;;28.45;9.30;;;8.00;99.90;;;;;;5017866;28;20204;-49
2022/11/25 05:03:53;;;;;;;23.92;8.45;;;7.80;99.90;;;;;;5022049;28;20132;-48
2022/11/25 05:06:19;;;;;;;23.23;8.73;;;7.60;99.90;;;;;;5017700;28;20533;-51
2022/11/25 05:08:48;;;;;;;32.42;9.15;;;7.60;99.90;;;;;;5018362;28;20110;-54
2022/11/25 05:11:14;;;;;;;30.48;8.43;;;8.40;99.90;;;;;;5019227;28;20056;-52
2022/11/25 05:13:40;;;;;;;22.70;8.35;;;7.60;99.90;;;;;;5014503;28;20042;-52
2022/11/25 05:16:06;;;;;;;33.78;8.70;;;8.90;99.90;;;;;;5019157;28;20036;-52
2022/11/25 05:18:32;;;;;;;35.25;9.07;;;7.50;99.90;;;;;;5019667;28;20045;-53
2022/11/25 05:21:01;;;;;;;29.02;9.02;;;7.50;99.90;;;;;;5019546;28;20045;-51
2022/11/25 05:23:27;;;;;;;24.48;9.23;;;7.50;99.90;;;;;;5018698;28;20041;-53
2022/11/25 05:25:59;;;;;;;34.90;9.23;;;7.80;99.90;;;;;;5017939;28;20072;-54
2022/11/25 05:28:25;;;;;;;24.80;8.25;;;8.70;99.90;;;;;;5019314;28;20112;-53
2022/11/25 05:30:51;;;;;;;28.48;8.93;;;8.70;99.90;;;;;;5018093;28;20046;-52
2022/11/25 05:33:17;;;;;;;26.77;8.38;;;8.30;99.90;;;;;;5018359;28;20048;-51
2022/11/25 05:35:43;;;;;;;25.00;8.57;;;7.60;99.90;;;;;;5019864;28;20045;-52
2022/11/25 05:38:08;;;;;;;27.27;8.32;;;8.60;99.90;;;;;;5016206;28;20037;-53
2022/11/25 05:40:34;;;;;;;24.40;9.18;;;9.20;99.90;;;;;;5017412;28;20069;-52
2022/11/25 05:43:00;;;;;;;26.17;7.85;;;8.70;99.90;;;;;;5017066;28;20502;-52
2022/11/25 05:45:26;;;;;;;27.83;8.80;;;7.40;99.90;;;;;;5017179;28;20076;-50
2022/11/25 05:47:52;;;;;;;34.72;8.85;;;9.00;99.90;;;;;;5018147;28;20386;-52
2022/11/25 05:50:17;;;;;;;22.70;7.78;;;8.80;99.90;;;;;;5016837;28;20052;-51
2022/11/25 05:52:43;;;;;;;28.20;7.43;;;7.50;99.90;;;;;;5017027;28;20459;-53
2022/11/25 05:55:09;;;;;;;25.27;8.07;;;7.60;99.90;;;;;;5015621;28;20090;-53
2022/11/25 05:57:35;;;;;;;24.25;7.95;;;8.60;99.90;;;;;;5017570;28;20053;-52
2022/11/25 06:00:00;;;;;;;29.70;7.80;;;7.60;99.90;;;;;;5017494;28;20152;-53
2022/11/25 06:02:26;;;;;;;32.20;9.70;;;7.60;99.90;;;;;;5016550;28;20127;-52
2022/11/25 06:04:52;;;;;;;24.98;7.82;;;8.00;99.90;;;;;;5016446;28;20069;-53
2022/11/25 06:07:18;;;;;;;26.75;8.55;;;8.70;99.90;;;;;;5021338;28;20049;-52
2022/11/25 06:09:43;;;;;;;36.72;8.75;;;7.40;99.90;;;;;;5017936;28;20037;-52
2022/11/25 06:12:09;;;;;;;24.08;8.38;;;8.70;99.90;;;;;;5018871;28;20037;-54
2022/11/25 06:14:35;;;;;;;24.77;8.18;;;7.60;99.90;;;;;;5018054;28;20566;-53
2022/11/25 06:17:00;;;;;;;30.85;8.38;;;7.90;99.90;;;;;;5016488;28;20044;-54
2022/11/25 06:19:26;;;;;;;31.02;8.82;;;7.50;99.90;;;;;;5019973;28;20054;-53
2022/11/25 06:21:52;;;;;;;23.48;7.78;;;7.50;99.90;;;;;;5018057;28;20120;-52
2022/11/25 06:24:18;;;;;;;19.70;7.57;;;8.10;99.90;;;;;;5019522;28;20045;-54
2022/11/25 06:26:43;;;;;;;26.55;10.02;;;9.20;99.90;;;;;;5018771;28;20112;-53
2022/11/25 06:29:09;;;;;;;24.63;7.57;;;7.60;99.90;;;;;;5020157;28;20041;-52
2022/11/25 06:31:34;;;;;;;22.00;8.05;;;9.20;99.90;;;;;;5017665;28;20115;-51
2022/11/25 06:34:00;;;;;;;26.38;7.75;;;9.20;99.90;;;;;;5017496;28;20076;-52
2022/11/25 06:36:26;;;;;;;23.80;8.02;;;8.00;99.90;;;;;;5019418;28;20045;-49
2022/11/25 06:38:53;;;;;;;26.05;7.65;;;7.60;99.90;;;;;;5018879;28;20563;-51
2022/11/25 06:41:21;;;;;;;24.67;6.95;;;8.80;99.90;;;;;;5018433;28;20418;-52
2022/11/25 06:43:46;;;;;;;16.80;6.43;;;9.90;99.90;;;;;;5014557;28;20040;-50
2022/11/25 06:46:14;;;;;;;19.48;6.88;;;8.00;99.90;;;;;;5014250;28;20045;-51
2022/11/25 06:48:40;;;;;;;20.75;6.88;;;9.10;99.90;;;;;;5018135;28;20053;-52
2022/11/25 06:51:09;;;;;;;26.00;7.28;;;7.80;99.90;;;;;;5014831;28;20099;-50
2022/11/25 06:53:35;;;;;;;28.75;7.15;;;9.80;99.90;;;;;;5017025;28;20045;-50
2022/11/25 06:56:16;;;;;;;20.45;6.63;;;7.80;99.90;;;;;;5018465;28;20088;-54
2022/11/25 06:58:43;;;;;;;26.02;7.63;;;8.20;99.90;;;;;;5014578;28;20063;-50
2022/11/25 07:01:14;;;;;;;17.05;6.80;;;7.90;99.90;;;;;;5015402;28;20095;-49
2022/11/25 07:03:41;;;;;;;18.30;6.50;;;8.50;99.90;;;;;;5016726;28;20469;-52
2022/11/25 07:06:07;;;;;;;21.45;7.43;;;9.10;99.90;;;;;;5018875;28;20057;-53
2022/11/25 07:08:34;;;;;;;16.70;6.80;;;7.90;99.90;;;;;;5019378;28;20045;-53
2022/11/25 07:11:27;;;;;;;17.10;6.35;;;8.70;99.90;;;;;;5012984;28;20502;-52
2022/11/25 07:13:56;;;;;;;21.00;7.20;;;8.10;99.90;;;;;;5016269;28;20049;-50
2022/11/25 07:16:22;;;;;;;21.85;7.53;;;8.50;99.90;;;;;;5019962;28;20041;-54
2022/11/25 07:18:48;;;;;;;20.02;6.55;;;8.40;99.90;;;;;;5017580;28;20501;-51
2022/11/25 07:21:16;;;;;;;19.88;6.97;;;8.90;99.90;;;;;;5016613;28;20747;-50
2022/11/25 07:23:43;;;;;;;17.25;6.25;;;8.40;99.90;;;;;;5016552;28;20057;-50
2022/11/25 07:26:18;;;;;;;20.10;6.22;;;7.90;99.90;;;;;;5015019;28;20160;-50
2022/11/25 07:28:44;;;;;;;20.85;6.07;;;8.00;99.90;;;;;;5015096;28;20044;-51
2022/11/25 07:31:23;;;;;;;17.42;6.60;;;8.50;99.90;;;;;;5014730;28;20045;-52
2022/11/25 07:33:54;;;;;;;18.40;6.25;;;8.10;99.90;;;;;;5017147;28;20049;-53
2022/11/25 07:36:20;;;;;;;25.17;7.07;;;9.20;99.90;;;;;;5015263;28;20151;-54
2022/11/25 07:38:46;;;;;;;17.83;6.15;;;8.70;99.90;;;;;;5015530;28;20045;-51
2022/11/25 07:41:15;;;;;;;22.30;7.05;;;7.50;99.90;;;;;;5018261;28;20041;-52
2022/11/25 07:43:46;;;;;;;18.63;6.18;;;8.70;99.90;;;;;;5020353;28;20528;-53
2022/11/25 07:46:20;;;;;;;14.18;5.93;;;9.00;99.90;;;;;;5021604;28;20042;-51
2022/11/25 07:48:46;;;;;;;16.33;5.68;;;7.60;99.90;;;;;;5022781;28;20037;-52
2022/11/25 07:51:17;;;;;;;20.52;5.72;;;7.60;99.90;;;;;;5020538;28;20092;-52
2022/11/25 07:53:42;;;;;;;17.15;4.78;;;7.60;99.90;;;;;;5020887;28;20119;-52
2022/11/25 07:56:09;;;;;;;21.15;6.88;;;9.30;99.90;;;;;;5021035;28;20212;-53
2022/11/25 07:58:34;;;;;;;13.90;5.15;;;8.40;99.90;;;;;;5018764;28;20053;-53
2022/11/25 08:01:05;;;;;;;25.38;5.82;;;8.10;99.90;;;;;;5018432;28;20387;-50
2022/11/25 08:03:32;;;;;;;22.98;6.28;;;7.50;99.90;;;;;;5022319;28;20041;-52
2022/11/25 08:06:10;;;;;;;20.55;5.43;;;7.60;99.90;;;;;;5023355;28;20115;-51
2022/11/25 08:08:37;;;;;;;14.50;4.78;;;7.60;99.90;;;;;;5022029;28;20044;-49
2022/11/25 08:11:07;;;;;;;16.25;5.45;;;8.50;99.90;;;;;;5019062;28;20148;-52
2022/11/25 08:13:33;;;;;;;19.05;5.53;;;7.90;99.90;;;;;;5018428;28;20037;-52
2022/11/25 08:15:59;;;;;;;17.60;7.40;;;8.70;99.90;;;;;;5016182;28;20049;-48
2022/11/25 08:18:25;;;;;;;15.70;5.95;;;7.50;99.90;;;;;;5017265;28;20485;-48
2022/11/25 08:20:51;;;;;;;15.27;5.18;;;8.10;99.90;;;;;;5020494;28;20120;-53
2022/11/25 08:23:17;;;;;;;19.63;5.13;;;7.60;99.90;;;;;;5018919;28;20045;-53
2022/11/25 08:25:43;;;;;;;17.67;5.63;;;9.00;99.90;;;;;;5016421;28;20047;-51
2022/11/25 08:28:09;;;;;;;16.92;6.30;;;7.60;99.90;;;;;;5019588;28;20514;-53
2022/11/25 08:30:35;;;;;;;17.33;4.68;;;7.60;99.90;;;;;;5018561;28;20041;-52
2022/11/25 08:33:03;;;;;;;15.43;5.05;;;8.50;99.90;;;;;;5017251;28;20046;-51
2022/11/25 08:35:30;;;;;;;12.88;4.80;;;7.70;99.90;;;;;;5018756;28;20111;-52
2022/11/25 08:37:56;;;;;;;15.63;5.10;;;8.30;99.90;;;;;;5018756;28;20723;-52
2022/11/25 08:40:21;;;;;;;12.45;4.28;;;8.70;99.90;;;;;;5019895;28;20190;-52
2022/11/25 08:42:47;;;;;;;16.40;4.75;;;9.10;99.90;;;;;;5019973;28;20217;-52
2022/11/25 08:45:13;;;;;;;11.70;4.30;;;9.00;99.90;;;;;;5017451;28;20049;-50
2022/11/25 08:47:39;;;;;;;14.88;4.53;;;9.40;99.90;;;;;;5019162;28;20521;-52
2022/11/25 08:50:08;;;;;;;16.52;5.30;;;10.40;99.90;;;;;;5018975;28;20128;-50
2022/11/25 08:52:34;;;;;;;13.23;4.25;;;9.60;99.90;;;;;;5018885;28;20053;-53
2022/11/25 08:55:01;;;;;;;17.08;4.18;;;9.90;99.90;;;;;;5018212;28;20077;-52
2022/11/25 08:57:27;;;;;;;15.98;3.65;;;10.00;99.90;;;;;;5019969;28;20166;-48
2022/11/25 08:59:52;;;;;;;13.32;3.53;;;10.40;99.90;;;;;;5021934;28;20045;-48
2022/11/25 09:02:18;;;;;;;13.48;4.25;;;10.30;99.90;;;;;;5019252;28;20059;-51
2022/11/25 09:04:44;;;;;;;11.13;3.85;;;10.00;99.90;;;;;;5021512;28;20608;-51
2022/11/25 09:07:10;;;;;;;15.27;4.70;;;10.80;99.90;;;;;;5021413;28;20059;-52
2022/11/25 09:09:35;;;;;;;9.00;4.15;;;11.00;99.90;;;;;;5020622;28;20048;-52
2022/11/25 09:12:01;;;;;;;19.23;4.72;;;9.70;99.90;;;;;;5019470;28;20045;-53
2022/11/25 09:14:28;;;;;;;10.15;3.40;;;9.80;99.90;;;;;;5019545;28;20471;-49
2022/11/25 09:16:55;;;;;;;10.45;5.20;;;10.40;99.90;;;;;;5018023;28;20302;-50
2022/11/25 09:19:21;;;;;;;12.45;3.92;;;10.40;99.90;;;;;;5016479;28;20038;-53
2022/11/25 09:21:47;;;;;;;11.52;5.57;;;9.60;99.90;;;;;;5017627;28;20695;-52
2022/11/25 09:24:13;;;;;;;11.30;3.42;;;9.80;99.90;;;;;;5018503;28;20056;-52
2022/11/25 09:26:39;;;;;;;9.48;3.38;;;9.80;99.90;;;;;;5018312;28;20041;-52
2022/11/25 09:29:07;;;;;;;14.95;4.63;;;9.60;99.90;;;;;;5019941;28;20119;-52
2022/11/25 09:31:33;;;;;;;8.70;3.58;;;9.50;99.90;;;;;;5019307;28;20128;-53
2022/11/25 09:33:59;;;;;;;11.85;5.38;;;9.60;99.90;;;;;;5015997;28;20037;-52
2022/11/25 09:36:25;;;;;;;7.95;3.42;;;9.90;99.90;;;;;;5015529;28;20052;-51
2022/11/25 09:38:51;;;;;;;10.65;3.72;;;9.80;99.90;;;;;;5018675;28;20053;-53
2022/11/25 09:47:30;;;;;;;9.85;3.85;;;10.30;99.90;;;;;;5019204;28;20072;-50
2022/11/25 09:50:20;;;;;;;10.38;3.90;;;10.50;99.90;;;;;;5017802;28;20405;-53
2022/11/25 09:53:17;;;;;;;8.32;3.60;;;10.90;99.90;;;;;;5016735;28;20090;-51
2022/11/25 09:55:46;;;;;;;9.48;3.15;;;11.10;99.90;;;;;;5020001;28;20053;-52
2022/11/25 09:58:28;;;;;;;11.70;3.20;;;11.40;99.90;;;;;;5018776;28;20811;-53
2022/11/25 10:00:54;;;;;;;12.07;4.90;;;11.30;99.90;;;;;;5015423;28;20045;-51
2022/11/25 10:03:32;;;;;;;9.50;3.00;;;11.40;99.90;;;;;;5014943;28;20387;-53
2022/11/25 10:06:26;;;;;;;13.75;3.60;;;11.30;99.90;;;;;;5016979;28;20056;-52
2022/11/25 10:08:56;;;;;;;13.80;3.30;;;11.00;99.90;;;;;;5006926;28;20042;-50
2022/11/25 10:11:44;;;;;;;16.85;4.88;;;10.60;99.90;;;;;;5017437;28;20030;-53
2022/11/25 10:14:20;;;;;;;11.13;4.03;;;10.30;99.90;;;;;;5017892;28;20045;-53
2022/11/25 10:17:04;;;;;;;12.35;3.20;;;10.20;99.90;;;;;;5014412;28;20041;-52
2022/11/25 10:19:55;;;;;;;14.68;3.47;;;10.10;99.90;;;;;;5017638;28;20766;-53
2022/11/25 10:22:30;;;;;;;18.10;4.32;;;9.90;99.90;;;;;;5015779;28;20124;-54
2022/11/25 10:25:04;;;;;;;17.75;5.53;;;9.90;99.90;;;;;;5017816;28;20127;-50
2022/11/25 10:27:42;;;;;;;20.58;9.18;;;9.90;99.90;;;;;;5017266;28;20052;-53
2022/11/25 10:30:34;;;;;;;24.90;9.95;;;9.50;99.90;;;;;;5018072;28;20045;-54
2022/11/25 10:33:20;;;;;;;14.80;3.55;;;11.60;99.90;;;;;;5018062;28;20049;-52
2022/11/25 10:36:05;;;;;;;12.23;3.55;;;9.40;99.90;;;;;;5019832;28;20409;-51
2022/11/25 10:39:01;;;;;;;15.15;3.90;;;9.40;99.90;;;;;;5017711;28;20037;-51
2022/11/25 10:41:55;;;;;;;13.80;4.90;;;9.40;99.90;;;;;;5014231;28;20034;-54
2022/11/25 10:44:33;;;;;;;14.77;4.97;;;9.50;99.90;;;;;;5017023;28;20102;-52
2022/11/25 10:47:23;;;;;;;13.05;3.30;;;11.60;99.90;;;;;;5016534;28;20045;-51
2022/11/25 10:50:08;;;;;;;13.68;5.40;;;9.60;99.90;;;;;;5013448;28;20417;-49
2022/11/25 10:52:45;;;;;;;14.50;3.63;;;9.70;99.90;;;;;;5017410;28;20051;-54
2022/11/25 10:55:14;;;;;;;10.52;2.85;;;9.80;99.90;;;;;;5018481;28;20044;-54
2022/11/25 10:57:40;;;;;;;14.35;3.67;;;8.10;99.90;;;;;;5016910;28;20388;-54
2022/11/25 11:00:07;;;;;;;8.98;2.80;;;10.30;99.90;;;;;;5017462;28;20050;-53
2022/11/25 11:02:33;;;;;;;12.32;3.72;;;10.00;99.90;;;;;;5016472;28;20041;-52
2022/11/25 11:05:13;;;;;;;9.48;3.83;;;12.10;99.90;;;;;;5017474;28;20445;-52
2022/11/25 11:07:41;;;;;;;16.30;3.60;;;10.20;99.90;;;;;;5015244;28;20133;-54
2022/11/25 11:10:21;;;;;;;13.60;4.88;;;10.10;99.90;;;;;;5015029;28;20519;-54
2022/11/25 11:12:49;;;;;;;14.13;4.03;;;10.10;99.90;;;;;;5015311;28;20095;-54
2022/11/25 11:15:22;;;;;;;12.38;4.55;;;11.80;99.90;;;;;;5020154;28;20794;-53
2022/11/25 11:17:48;;;;;;;12.57;3.03;;;10.50;99.90;;;;;;5019747;28;20033;-53
2022/11/25 11:20:25;;;;;;;12.85;2.85;;;12.40;99.90;;;;;;5021333;28;20562;-54
2022/11/25 11:23:04;;;;;;;13.63;4.32;;;10.70;99.90;;;;;;5018398;28;20509;-50
2022/11/25 11:25:33;;;;;;;16.63;5.80;;;10.60;99.90;;;;;;5019248;28;20088;-52
2022/11/25 11:28:00;;;;;;;12.98;3.97;;;12.60;99.90;;;;;;5020768;28;20049;-49
2022/11/25 11:30:31;;;;;;;12.93;3.03;;;11.90;99.90;;;;;;5021531;28;20076;-53
2022/11/25 11:33:25;;;;;;;13.35;4.43;;;12.20;99.90;;;;;;5018996;28;20311;-53
2022/11/25 11:36:13;;;;;;;16.10;3.88;;;10.20;99.90;;;;;;5019548;28;20097;-54
2022/11/25 11:38:55;;;;;;;16.85;5.22;;;10.10;99.90;;;;;;5018342;28;20137;-53
2022/11/25 11:41:26;;;;;;;15.35;5.78;;;10.00;99.90;;;;;;5020335;28;20045;-54
2022/11/25 11:44:06;;;;;;;13.70;3.63;;;10.10;99.90;;;;;;5020556;28;20041;-53
2022/11/25 11:47:04;;;;;;;14.13;4.85;;;10.10;99.90;;;;;;5020450;28;20147;-54
2022/11/25 11:49:59;;;;;;;13.55;3.35;;;8.00;99.90;;;;;;5021692;28;20549;-53
2022/11/25 11:52:42;;;;;;;16.80;4.20;;;10.10;99.90;;;;;;5012337;28;20041;-54
2022/11/25 11:55:29;;;;;;;16.45;2.60;;;10.00;99.90;;;;;;5017991;28;20525;-54
2022/11/25 11:58:33;;;;;;;18.67;4.65;;;10.00;99.90;;;;;;5023417;28;20049;-53
2022/11/25 12:01:21;;;;;;;20.08;3.90;;;10.40;99.90;;;;;;5020176;28;20586;-53
2022/11/25 12:04:26;;;;;;;15.27;3.88;;;10.40;99.90;;;;;;5016488;28;20045;-50
2022/11/25 12:07:10;;;;;;;12.95;3.38;;;10.20;99.90;;;;;;5015699;28;20056;-53
2022/11/25 12:09:47;;;;;;;13.15;3.70;;;10.00;99.90;;;;;;5020760;28;20160;-53
2022/11/25 12:12:18;;;;;;;17.25;5.10;;;10.20;99.90;;;;;;5017648;28;20398;-53
2022/11/25 12:14:59;;;;;;;16.95;3.85;;;10.20;99.90;;;;;;5018225;28;20080;-50
2022/11/25 12:17:41;;;;;;;19.45;4.70;;;10.30;99.90;;;;;;5017966;28;20387;-54
2022/11/25 12:20:35;;;;;;;15.93;4.60;;;10.30;99.90;;;;;;5018970;28;20179;-53
2022/11/25 12:23:14;;;;;;;19.92;3.95;;;10.40;99.90;;;;;;5018594;28;20152;-53
2022/11/25 12:25:41;;;;;;;20.83;4.95;;;10.30;99.90;;;;;;5016719;28;20046;-52
2022/11/25 12:28:20;;;;;;;15.23;3.70;;;10.30;99.90;;;;;;5021886;28;20034;-52
2022/11/25 12:31:05;;;;;;;13.38;3.25;;;10.30;99.90;;;;;;5019314;28;20041;-53
2022/11/25 12:34:14;;;;;;;14.48;3.45;;;10.30;99.90;;;;;;5018600;28;20045;-54
2022/11/25 12:36:43;;;;;;;13.77;3.85;;;10.30;99.90;;;;;;5016074;28;20073;-53
2022/11/25 12:39:27;;;;;;;21.73;2.88;;;11.20;99.90;;;;;;5019317;28;20045;-52
2022/11/25 12:42:00;;;;;;;21.60;3.70;;;10.30;99.90;;;;;;5016891;28;20094;-52
2022/11/25 12:44:41;;;;;;;18.33;3.45;;;10.60;99.90;;;;;;5018185;28;20045;-51
2022/11/25 12:47:10;;;;;;;21.00;3.65;;;11.80;99.90;;;;;;5021944;28;20120;-52
2022/11/25 12:49:42;;;;;;;14.18;2.97;;;10.50;99.90;;;;;;5017237;28;20053;-51
2022/11/25 12:52:17;;;;;;;18.58;3.00;;;10.70;99.90;;;;;;5018697;28;20037;-51
2022/11/25 12:54:52;;;;;;;21.75;3.45;;;10.90;99.90;;;;;;5017608;28;20132;-54
2022/11/25 12:57:45;;;;;;;21.50;2.95;;;10.90;99.90;;;;;;5021152;28;20492;-51
2022/11/25 13:00:26;;;;;;;16.65;3.45;;;10.90;99.90;;;;;;5020991;28;20500;-52
2022/11/25 13:03:16;;;;;;;16.63;2.85;;;10.90;99.90;;;;;;5016972;28;20041;-53
2022/11/25 13:06:09;;;;;;;19.23;3.55;;;10.90;99.90;;;;;;5019482;28;20052;-52
2022/11/25 13:08:53;;;;;;;15.38;2.92;;;11.00;99.90;;;;;;5017699;28;20152;-52
2022/11/25 13:11:53;;;;;;;21.65;4.38;;;10.90;99.90;;;;;;5020031;28;20033;-52
2022/11/25 13:14:22;;;;;;;18.35;3.58;;;10.50;99.90;;;;;;5016939;28;20136;-51
2022/11/25 13:16:48;;;;;;;20.90;3.15;;;11.20;99.90;;;;;;5020116;28;20045;-53